sensor_id;sensor_type;location;lat;lon;timestamp;temperature;humidity
48686;DHT22;34485;51.536;3.816;2024-01-07T00:00:41;4.20;99.90
48686;DHT22;34485;51.536;3.816;2024-01-07T00:03:07;4.20;99.90
48686;DHT22;34485;51.536;3.816;2024-01-07T00:05:35;4.20;99.90
48686;DHT22;34485;51.536;3.816;2024-01-07T00:08:01;4.20;99.90
48686;DHT22;34485;51.536;3.816;2024-01-07T00:10:26;4.20;99.90
48686;DHT22;34485;51.536;3.816;2024-01-07T00:12:52;4.20;99.90
48686;DHT22;34485;51.536;3.816;2024-01-07T00:15:18;4.20;99.90
48686;DHT22;34485;51.536;3.816;2024-01-07T00:17:44;4.20;99.90
48686;DHT22;34485;51.536;3.816;2024-01-07T00:20:10;4.20;99.90
48686;DHT22;34485;51.536;3.816;2024-01-07T00:22:36;4.20;99.90
48686;DHT22;34485;51.536;3.816;2024-01-07T00:25:01;4.10;99.90
48686;DHT22;34485;51.536;3.816;2024-01-07T00:27:27;4.00;99.90
48686;DHT22;34485;51.536;3.816;2024-01-07T00:29:53;3.90;99.90
48686;DHT22;34485;51.536;3.816;2024-01-07T00:32:18;3.90;99.90
48686;DHT22;34485;51.536;3.816;2024-01-07T00:34:44;3.80;99.90
48686;DHT22;34485;51.536;3.816;2024-01-07T00:37:10;3.70;99.90
48686;DHT22;34485;51.536;3.816;2024-01-07T00:39:36;3.70;99.90
48686;DHT22;34485;51.536;3.816;2024-01-07T00:42:01;3.70;99.90
48686;DHT22;34485;51.536;3.816;2024-01-07T00:44:27;3.60;99.90
48686;DHT22;34485;51.536;3.816;2024-01-07T00:46:53;3.60;99.90
48686;DHT22;34485;51.536;3.816;2024-01-07T00:49:18;3.60;99.90
48686;DHT22;34485;51.536;3.816;2024-01-07T00:51:44;3.60;99.90
48686;DHT22;34485;51.536;3.816;2024-01-07T00:54:10;3.50;99.90
48686;DHT22;34485;51.536;3.816;2024-01-07T00:56:35;3.50;99.90
48686;DHT22;34485;51.536;3.816;2024-01-07T00:59:01;3.50;99.90
48686;DHT22;34485;51.536;3.816;2024-01-07T01:08:45;3.40;99.90
48686;DHT22;34485;51.536;3.816;2024-01-07T01:11:11;3.20;99.90
48686;DHT22;34485;51.536;3.816;2024-01-07T01:13:37;3.20;99.90
48686;DHT22;34485;51.536;3.816;2024-01-07T01:16:03;3.20;99.90
48686;DHT22;34485;51.536;3.816;2024-01-07T01:18:29;3.20;99.90
48686;DHT22;34485;51.536;3.816;2024-01-07T01:20:56;3.20;99.90
48686;DHT22;34485;51.536;3.816;2024-01-07T01:23:22;3.10;99.90
48686;DHT22;34485;51.536;3.816;2024-01-07T01:25:47;3.10;99.90
48686;DHT22;34485;51.536;3.816;2024-01-07T01:28:14;3.10;99.90
48686;DHT22;34485;51.536;3.816;2024-01-07T01:30:39;3.00;99.90
48686;DHT22;34485;51.536;3.816;2024-01-07T01:33:06;2.90;99.90
48686;DHT22;34485;51.536;3.816;2024-01-07T01:35:32;2.90;99.90
48686;DHT22;34485;51.536;3.816;2024-01-07T01:37:58;2.90;99.90
48686;DHT22;34485;51.536;3.816;2024-01-07T01:40:23;2.90;99.90
48686;DHT22;34485;51.536;3.816;2024-01-07T01:42:49;2.80;99.90
48686;DHT22;34485;51.536;3.816;2024-01-07T01:45:15;2.80;99.90
48686;DHT22;34485;51.536;3.816;2024-01-07T01:47:41;2.70;99.90
48686;DHT22;34485;51.536;3.816;2024-01-07T01:50:08;2.70;99.90
48686;DHT22;34485;51.536;3.816;2024-01-07T01:57:34;2.60;99.90
48686;DHT22;34485;51.536;3.816;2024-01-07T02:00:05;2.50;99.90
48686;DHT22;34485;51.536;3.816;2024-01-07T02:02:32;2.50;99.90
48686;DHT22;34485;51.536;3.816;2024-01-07T02:05:00;2.50;99.90
48686;DHT22;34485;51.536;3.816;2024-01-07T02:07:27;2.50;99.90
48686;DHT22;34485;51.536;3.816;2024-01-07T02:09:53;2.40;99.90
48686;DHT22;34485;51.536;3.816;2024-01-07T02:12:19;2.40;99.90
48686;DHT22;34485;51.536;3.816;2024-01-07T02:14:44;2.40;99.90
48686;DHT22;34485;51.536;3.816;2024-01-07T02:17:10;2.40;99.90
48686;DHT22;34485;51.536;3.816;2024-01-07T02:19:36;2.40;99.90
48686;DHT22;34485;51.536;3.816;2024-01-07T02:22:02;2.40;99.90
48686;DHT22;34485;51.536;3.816;2024-01-07T02:24:28;2.40;99.90
48686;DHT22;34485;51.536;3.816;2024-01-07T02:26:56;2.40;99.90
48686;DHT22;34485;51.536;3.816;2024-01-07T02:29:21;2.40;99.90
48686;DHT22;34485;51.536;3.816;2024-01-07T02:31:47;2.50;99.90
48686;DHT22;34485;51.536;3.816;2024-01-07T02:34:13;2.50;99.90
48686;DHT22;34485;51.536;3.816;2024-01-07T02:36:39;2.50;99.90
48686;DHT22;34485;51.536;3.816;2024-01-07T02:39:04;2.50;99.90
48686;DHT22;34485;51.536;3.816;2024-01-07T02:41:30;2.50;99.90
48686;DHT22;34485;51.536;3.816;2024-01-07T02:43:56;2.50;99.90
48686;DHT22;34485;51.536;3.816;2024-01-07T02:46:23;2.50;99.90
48686;DHT22;34485;51.536;3.816;2024-01-07T02:48:49;2.50;99.90
48686;DHT22;34485;51.536;3.816;2024-01-07T02:51:15;2.60;99.90
48686;DHT22;34485;51.536;3.816;2024-01-07T02:53:40;2.50;99.90
48686;DHT22;34485;51.536;3.816;2024-01-07T02:56:06;2.60;99.90
48686;DHT22;34485;51.536;3.816;2024-01-07T02:58:34;2.60;99.90
48686;DHT22;34485;51.536;3.816;2024-01-07T03:01:00;2.60;99.90
48686;DHT22;34485;51.536;3.816;2024-01-07T03:03:25;2.60;99.90
48686;DHT22;34485;51.536;3.816;2024-01-07T03:05:51;2.70;99.90
48686;DHT22;34485;51.536;3.816;2024-01-07T03:08:17;2.70;99.90
48686;DHT22;34485;51.536;3.816;2024-01-07T03:10:43;2.70;99.90
48686;DHT22;34485;51.536;3.816;2024-01-07T03:13:08;2.70;99.90
48686;DHT22;34485;51.536;3.816;2024-01-07T03:15:34;2.70;99.90
48686;DHT22;34485;51.536;3.816;2024-01-07T03:18:00;2.70;99.90
48686;DHT22;34485;51.536;3.816;2024-01-07T03:20:25;2.70;99.90
48686;DHT22;34485;51.536;3.816;2024-01-07T03:22:51;2.70;99.90
48686;DHT22;34485;51.536;3.816;2024-01-07T03:25:17;2.70;99.90
48686;DHT22;34485;51.536;3.816;2024-01-07T03:27:43;2.70;99.90
48686;DHT22;34485;51.536;3.816;2024-01-07T03:30:09;2.70;99.90
48686;DHT22;34485;51.536;3.816;2024-01-07T03:32:35;2.70;99.90
48686;DHT22;34485;51.536;3.816;2024-01-07T03:35:01;2.70;99.90
48686;DHT22;34485;51.536;3.816;2024-01-07T03:37:27;2.70;99.90
48686;DHT22;34485;51.536;3.816;2024-01-07T03:39:54;2.70;99.90
48686;DHT22;34485;51.536;3.816;2024-01-07T03:42:19;2.70;99.90
48686;DHT22;34485;51.536;3.816;2024-01-07T03:44:45;2.70;99.90
48686;DHT22;34485;51.536;3.816;2024-01-07T03:47:11;2.70;99.90
48686;DHT22;34485;51.536;3.816;2024-01-07T03:49:37;2.70;99.90
48686;DHT22;34485;51.536;3.816;2024-01-07T03:52:06;2.70;99.90
48686;DHT22;34485;51.536;3.816;2024-01-07T03:54:32;2.70;99.90
48686;DHT22;34485;51.536;3.816;2024-01-07T03:56:58;2.70;99.90
48686;DHT22;34485;51.536;3.816;2024-01-07T03:59:23;2.70;99.90
48686;DHT22;34485;51.536;3.816;2024-01-07T04:01:53;2.70;99.90
48686;DHT22;34485;51.536;3.816;2024-01-07T04:04:19;2.70;99.90
48686;DHT22;34485;51.536;3.816;2024-01-07T04:06:44;2.70;99.90
48686;DHT22;34485;51.536;3.816;2024-01-07T04:09:10;2.60;99.90
48686;DHT22;34485;51.536;3.816;2024-01-07T04:11:40;2.60;99.90
48686;DHT22;34485;51.536;3.816;2024-01-07T04:14:06;2.60;99.90
48686;DHT22;34485;51.536;3.816;2024-01-07T04:16:32;2.60;99.90
48686;DHT22;34485;51.536;3.816;2024-01-07T04:18:58;2.60;99.90
48686;DHT22;34485;51.536;3.816;2024-01-07T04:21:23;2.60;99.90
48686;DHT22;34485;51.536;3.816;2024-01-07T04:23:49;2.60;99.90
48686;DHT22;34485;51.536;3.816;2024-01-07T04:26:15;2.60;99.90
48686;DHT22;34485;51.536;3.816;2024-01-07T04:28:44;2.60;99.90
48686;DHT22;34485;51.536;3.816;2024-01-07T04:31:10;2.60;99.90
48686;DHT22;34485;51.536;3.816;2024-01-07T04:33:36;2.60;99.90
48686;DHT22;34485;51.536;3.816;2024-01-07T04:36:02;2.60;99.90
48686;DHT22;34485;51.536;3.816;2024-01-07T04:38:29;2.60;99.90
48686;DHT22;34485;51.536;3.816;2024-01-07T04:40:55;2.60;99.90
48686;DHT22;34485;51.536;3.816;2024-01-07T04:43:21;2.60;99.90
48686;DHT22;34485;51.536;3.816;2024-01-07T04:45:46;2.60;99.90
48686;DHT22;34485;51.536;3.816;2024-01-07T04:48:13;2.60;99.90
48686;DHT22;34485;51.536;3.816;2024-01-07T04:50:41;2.60;99.90
48686;DHT22;34485;51.536;3.816;2024-01-07T04:53:10;2.60;99.90
48686;DHT22;34485;51.536;3.816;2024-01-07T04:55:36;2.60;99.90
48686;DHT22;34485;51.536;3.816;2024-01-07T04:58:02;2.60;99.90
48686;DHT22;34485;51.536;3.816;2024-01-07T05:00:29;2.60;99.90
48686;DHT22;34485;51.536;3.816;2024-01-07T05:02:55;2.60;99.90
48686;DHT22;34485;51.536;3.816;2024-01-07T05:05:21;2.60;99.90
48686;DHT22;34485;51.536;3.816;2024-01-07T05:07:46;2.60;99.90
48686;DHT22;34485;51.536;3.816;2024-01-07T05:10:12;2.60;99.90
48686;DHT22;34485;51.536;3.816;2024-01-07T05:12:38;2.60;99.90
48686;DHT22;34485;51.536;3.816;2024-01-07T05:15:04;2.70;99.90
48686;DHT22;34485;51.536;3.816;2024-01-07T05:17:30;2.60;99.90
48686;DHT22;34485;51.536;3.816;2024-01-07T05:19:56;2.60;99.90
48686;DHT22;34485;51.536;3.816;2024-01-07T05:22:22;2.60;99.90
48686;DHT22;34485;51.536;3.816;2024-01-07T05:24:47;2.60;99.90
48686;DHT22;34485;51.536;3.816;2024-01-07T05:27:13;2.60;99.90
48686;DHT22;34485;51.536;3.816;2024-01-07T05:29:39;2.60;99.90
48686;DHT22;34485;51.536;3.816;2024-01-07T05:32:05;2.60;99.90
48686;DHT22;34485;51.536;3.816;2024-01-07T05:34:32;2.60;99.90
48686;DHT22;34485;51.536;3.816;2024-01-07T05:36:57;2.50;99.90
48686;DHT22;34485;51.536;3.816;2024-01-07T05:39:23;2.50;99.90
48686;DHT22;34485;51.536;3.816;2024-01-07T05:41:49;2.50;99.90
48686;DHT22;34485;51.536;3.816;2024-01-07T05:44:14;2.50;99.90
48686;DHT22;34485;51.536;3.816;2024-01-07T05:46:40;2.50;99.90
48686;DHT22;34485;51.536;3.816;2024-01-07T05:49:08;2.50;99.90
48686;DHT22;34485;51.536;3.816;2024-01-07T05:51:37;2.50;99.90
48686;DHT22;34485;51.536;3.816;2024-01-07T05:54:03;2.50;99.90
48686;DHT22;34485;51.536;3.816;2024-01-07T05:56:29;2.50;99.90
48686;DHT22;34485;51.536;3.816;2024-01-07T05:58:55;2.50;99.90
48686;DHT22;34485;51.536;3.816;2024-01-07T06:01:21;2.50;99.90
48686;DHT22;34485;51.536;3.816;2024-01-07T06:03:47;2.50;99.90
48686;DHT22;34485;51.536;3.816;2024-01-07T06:06:14;2.50;99.90
48686;DHT22;34485;51.536;3.816;2024-01-07T06:08:43;2.50;99.90
48686;DHT22;34485;51.536;3.816;2024-01-07T06:11:09;2.50;99.90
48686;DHT22;34485;51.536;3.816;2024-01-07T06:13:36;2.50;99.90
48686;DHT22;34485;51.536;3.816;2024-01-07T06:16:02;2.50;99.90
48686;DHT22;34485;51.536;3.816;2024-01-07T06:18:28;2.40;99.90
48686;DHT22;34485;51.536;3.816;2024-01-07T06:20:53;2.40;99.90
48686;DHT22;34485;51.536;3.816;2024-01-07T06:23:19;2.40;99.90
48686;DHT22;34485;51.536;3.816;2024-01-07T06:25:45;2.40;99.90
48686;DHT22;34485;51.536;3.816;2024-01-07T06:28:11;2.40;99.90
48686;DHT22;34485;51.536;3.816;2024-01-07T06:30:36;2.50;99.90
48686;DHT22;34485;51.536;3.816;2024-01-07T06:33:02;2.40;99.90
48686;DHT22;34485;51.536;3.816;2024-01-07T06:35:28;2.40;99.90
48686;DHT22;34485;51.536;3.816;2024-01-07T06:37:54;2.40;99.90
48686;DHT22;34485;51.536;3.816;2024-01-07T06:40:20;2.40;99.90
48686;DHT22;34485;51.536;3.816;2024-01-07T06:42:46;2.40;99.90
48686;DHT22;34485;51.536;3.816;2024-01-07T06:45:14;2.50;99.90
48686;DHT22;34485;51.536;3.816;2024-01-07T06:47:40;2.50;99.90
48686;DHT22;34485;51.536;3.816;2024-01-07T06:50:06;2.50;99.90
48686;DHT22;34485;51.536;3.816;2024-01-07T06:52:32;2.50;99.90
48686;DHT22;34485;51.536;3.816;2024-01-07T06:54:58;2.50;99.90
48686;DHT22;34485;51.536;3.816;2024-01-07T06:57:23;2.50;99.90
48686;DHT22;34485;51.536;3.816;2024-01-07T06:59:49;2.40;99.90
48686;DHT22;34485;51.536;3.816;2024-01-07T07:02:15;2.50;99.90
48686;DHT22;34485;51.536;3.816;2024-01-07T07:04:40;2.40;99.90
48686;DHT22;34485;51.536;3.816;2024-01-07T07:07:06;2.40;99.90
48686;DHT22;34485;51.536;3.816;2024-01-07T07:09:32;2.50;99.90
48686;DHT22;34485;51.536;3.816;2024-01-07T07:11:58;2.40;99.90
48686;DHT22;34485;51.536;3.816;2024-01-07T07:14:24;2.40;99.90
48686;DHT22;34485;51.536;3.816;2024-01-07T07:16:50;2.40;99.90
48686;DHT22;34485;51.536;3.816;2024-01-07T07:19:15;2.40;99.90
48686;DHT22;34485;51.536;3.816;2024-01-07T07:21:43;2.40;99.90
48686;DHT22;34485;51.536;3.816;2024-01-07T07:24:09;2.40;99.90
48686;DHT22;34485;51.536;3.816;2024-01-07T07:26:35;2.40;99.90
48686;DHT22;34485;51.536;3.816;2024-01-07T07:29:07;2.40;99.90
48686;DHT22;34485;51.536;3.816;2024-01-07T07:31:35;2.40;99.90
48686;DHT22;34485;51.536;3.816;2024-01-07T07:34:05;2.40;99.90
48686;DHT22;34485;51.536;3.816;2024-01-07T07:36:31;2.40;99.90
48686;DHT22;34485;51.536;3.816;2024-01-07T07:38:56;2.40;99.90
48686;DHT22;34485;51.536;3.816;2024-01-07T07:41:22;2.40;99.90
48686;DHT22;34485;51.536;3.816;2024-01-07T07:43:48;2.40;99.90
48686;DHT22;34485;51.536;3.816;2024-01-07T07:46:14;2.40;99.90
48686;DHT22;34485;51.536;3.816;2024-01-07T07:48:41;2.40;99.90
48686;DHT22;34485;51.536;3.816;2024-01-07T07:51:07;2.40;99.90
48686;DHT22;34485;51.536;3.816;2024-01-07T07:53:33;2.40;99.90
48686;DHT22;34485;51.536;3.816;2024-01-07T07:55:58;2.40;99.90
48686;DHT22;34485;51.536;3.816;2024-01-07T07:58:24;2.40;99.90
48686;DHT22;34485;51.536;3.816;2024-01-07T08:00:50;2.30;99.90
48686;DHT22;34485;51.536;3.816;2024-01-07T08:03:16;2.30;99.90
48686;DHT22;34485;51.536;3.816;2024-01-07T08:05:41;2.30;99.90
48686;DHT22;34485;51.536;3.816;2024-01-07T08:08:07;2.30;99.90
48686;DHT22;34485;51.536;3.816;2024-01-07T08:10:33;2.30;99.90
48686;DHT22;34485;51.536;3.816;2024-01-07T08:13:00;2.40;99.90
48686;DHT22;34485;51.536;3.816;2024-01-07T08:15:26;2.30;99.90
48686;DHT22;34485;51.536;3.816;2024-01-07T08:17:52;2.30;99.90
48686;DHT22;34485;51.536;3.816;2024-01-07T08:20:18;2.40;99.90
48686;DHT22;34485;51.536;3.816;2024-01-07T08:22:45;2.30;99.90
48686;DHT22;34485;51.536;3.816;2024-01-07T08:25:10;2.30;99.90
48686;DHT22;34485;51.536;3.816;2024-01-07T08:27:36;2.30;99.90
48686;DHT22;34485;51.536;3.816;2024-01-07T08:30:03;2.40;99.90
48686;DHT22;34485;51.536;3.816;2024-01-07T08:32:29;2.40;99.90
48686;DHT22;34485;51.536;3.816;2024-01-07T08:34:55;2.40;99.90
48686;DHT22;34485;51.536;3.816;2024-01-07T08:37:21;2.40;99.90
48686;DHT22;34485;51.536;3.816;2024-01-07T08:39:46;2.40;99.90
48686;DHT22;34485;51.536;3.816;2024-01-07T08:42:12;2.50;99.90
48686;DHT22;34485;51.536;3.816;2024-01-07T08:44:38;2.40;99.90
48686;DHT22;34485;51.536;3.816;2024-01-07T08:47:05;2.50;99.90
48686;DHT22;34485;51.536;3.816;2024-01-07T08:49:31;2.50;99.90
48686;DHT22;34485;51.536;3.816;2024-01-07T08:51:58;2.50;99.90
48686;DHT22;34485;51.536;3.816;2024-01-07T08:54:24;2.50;99.90
48686;DHT22;34485;51.536;3.816;2024-01-07T08:56:50;2.50;99.90
48686;DHT22;34485;51.536;3.816;2024-01-07T08:59:16;2.50;99.90
48686;DHT22;34485;51.536;3.816;2024-01-07T09:01:42;2.40;99.90
48686;DHT22;34485;51.536;3.816;2024-01-07T09:04:08;2.50;99.90
48686;DHT22;34485;51.536;3.816;2024-01-07T09:06:33;2.40;99.90
48686;DHT22;34485;51.536;3.816;2024-01-07T09:08:59;2.50;99.90
48686;DHT22;34485;51.536;3.816;2024-01-07T09:11:25;2.50;99.90
48686;DHT22;34485;51.536;3.816;2024-01-07T09:13:50;2.40;99.90
48686;DHT22;34485;51.536;3.816;2024-01-07T09:16:16;2.50;99.90
48686;DHT22;34485;51.536;3.816;2024-01-07T09:18:42;2.50;99.90
48686;DHT22;34485;51.536;3.816;2024-01-07T09:21:11;2.50;99.90
48686;DHT22;34485;51.536;3.816;2024-01-07T09:23:37;2.40;99.90
48686;DHT22;34485;51.536;3.816;2024-01-07T09:26:02;2.50;99.90
48686;DHT22;34485;51.536;3.816;2024-01-07T09:28:28;2.50;99.90
48686;DHT22;34485;51.536;3.816;2024-01-07T09:30:54;2.40;99.90
48686;DHT22;34485;51.536;3.816;2024-01-07T09:33:20;2.40;99.90
48686;DHT22;34485;51.536;3.816;2024-01-07T09:35:51;2.40;99.90
48686;DHT22;34485;51.536;3.816;2024-01-07T09:38:17;2.50;99.90
48686;DHT22;34485;51.536;3.816;2024-01-07T09:40:45;2.40;99.90
48686;DHT22;34485;51.536;3.816;2024-01-07T09:43:11;2.50;99.90
48686;DHT22;34485;51.536;3.816;2024-01-07T09:45:38;2.40;99.90
48686;DHT22;34485;51.536;3.816;2024-01-07T09:48:06;2.50;99.90
48686;DHT22;34485;51.536;3.816;2024-01-07T09:50:32;2.50;99.90
48686;DHT22;34485;51.536;3.816;2024-01-07T09:52:58;2.50;99.90
48686;DHT22;34485;51.536;3.816;2024-01-07T09:55:40;2.50;99.90
48686;DHT22;34485;51.536;3.816;2024-01-07T09:58:12;2.50;99.90
48686;DHT22;34485;51.536;3.816;2024-01-07T10:00:38;2.60;99.90
48686;DHT22;34485;51.536;3.816;2024-01-07T10:03:05;2.60;99.90
48686;DHT22;34485;51.536;3.816;2024-01-07T10:05:31;2.60;99.90
48686;DHT22;34485;51.536;3.816;2024-01-07T10:07:56;2.50;99.90
48686;DHT22;34485;51.536;3.816;2024-01-07T10:10:23;2.60;99.90
48686;DHT22;34485;51.536;3.816;2024-01-07T10:12:48;2.50;99.90
48686;DHT22;34485;51.536;3.816;2024-01-07T10:15:14;2.50;99.90
48686;DHT22;34485;51.536;3.816;2024-01-07T10:17:41;2.50;99.90
48686;DHT22;34485;51.536;3.816;2024-01-07T10:20:08;2.50;99.90
48686;DHT22;34485;51.536;3.816;2024-01-07T10:22:38;2.50;99.90
48686;DHT22;34485;51.536;3.816;2024-01-07T10:25:05;2.40;99.90
48686;DHT22;34485;51.536;3.816;2024-01-07T10:27:34;2.50;99.90
48686;DHT22;34485;51.536;3.816;2024-01-07T10:30:02;2.40;99.90
48686;DHT22;34485;51.536;3.816;2024-01-07T10:32:28;2.40;99.90
48686;DHT22;34485;51.536;3.816;2024-01-07T10:35:02;2.30;99.90
48686;DHT22;34485;51.536;3.816;2024-01-07T10:37:28;2.30;99.90
48686;DHT22;34485;51.536;3.816;2024-01-07T10:39:59;2.30;99.90
48686;DHT22;34485;51.536;3.816;2024-01-07T10:42:32;2.30;99.90
48686;DHT22;34485;51.536;3.816;2024-01-07T10:44:59;2.30;99.90
48686;DHT22;34485;51.536;3.816;2024-01-07T10:47:29;2.30;99.90
48686;DHT22;34485;51.536;3.816;2024-01-07T10:49:57;2.30;99.90
48686;DHT22;34485;51.536;3.816;2024-01-07T10:52:26;2.30;99.90
48686;DHT22;34485;51.536;3.816;2024-01-07T10:54:56;2.30;99.90
48686;DHT22;34485;51.536;3.816;2024-01-07T10:57:36;2.20;99.90
48686;DHT22;34485;51.536;3.816;2024-01-07T11:00:05;2.30;99.90
48686;DHT22;34485;51.536;3.816;2024-01-07T11:02:40;2.20;99.90
48686;DHT22;34485;51.536;3.816;2024-01-07T11:05:23;2.30;99.90
48686;DHT22;34485;51.536;3.816;2024-01-07T11:08:07;2.30;99.90
48686;DHT22;34485;51.536;3.816;2024-01-07T11:10:50;2.20;99.90
48686;DHT22;34485;51.536;3.816;2024-01-07T11:13:35;2.30;99.90
48686;DHT22;34485;51.536;3.816;2024-01-07T11:16:05;2.30;99.90
48686;DHT22;34485;51.536;3.816;2024-01-07T11:18:50;2.30;99.90
48686;DHT22;34485;51.536;3.816;2024-01-07T11:21:23;2.30;99.90
48686;DHT22;34485;51.536;3.816;2024-01-07T11:23:50;2.30;99.90
48686;DHT22;34485;51.536;3.816;2024-01-07T11:26:18;2.40;99.90
48686;DHT22;34485;51.536;3.816;2024-01-07T11:28:50;2.40;99.90
48686;DHT22;34485;51.536;3.816;2024-01-07T11:31:20;2.30;99.90
48686;DHT22;34485;51.536;3.816;2024-01-07T13:12:25;2.20;99.90
48686;DHT22;34485;51.536;3.816;2024-01-07T13:14:52;2.10;99.90
48686;DHT22;34485;51.536;3.816;2024-01-07T13:17:18;2.20;99.90
48686;DHT22;34485;51.536;3.816;2024-01-07T13:19:44;2.10;99.90
48686;DHT22;34485;51.536;3.816;2024-01-07T13:22:10;2.00;99.90
48686;DHT22;34485;51.536;3.816;2024-01-07T13:24:36;2.00;99.90
48686;DHT22;34485;51.536;3.816;2024-01-07T13:27:02;2.00;99.90
48686;DHT22;34485;51.536;3.816;2024-01-07T13:29:35;2.00;99.90
48686;DHT22;34485;51.536;3.816;2024-01-07T13:32:01;2.00;99.90
48686;DHT22;34485;51.536;3.816;2024-01-07T13:34:27;2.00;99.90
48686;DHT22;34485;51.536;3.816;2024-01-07T13:36:53;1.90;99.90
48686;DHT22;34485;51.536;3.816;2024-01-07T13:39:19;2.00;99.90
48686;DHT22;34485;51.536;3.816;2024-01-07T13:41:46;1.90;99.90
48686;DHT22;34485;51.536;3.816;2024-01-07T13:44:12;1.90;99.90
48686;DHT22;34485;51.536;3.816;2024-01-07T13:46:46;1.90;99.90
48686;DHT22;34485;51.536;3.816;2024-01-07T13:49:15;1.90;99.90
48686;DHT22;34485;51.536;3.816;2024-01-07T14:23:24;1.80;99.90
48686;DHT22;34485;51.536;3.816;2024-01-07T14:25:50;1.70;99.90
48686;DHT22;34485;51.536;3.816;2024-01-07T14:28:16;1.70;99.90
48686;DHT22;34485;51.536;3.816;2024-01-07T14:30:41;1.70;99.90
48686;DHT22;34485;51.536;3.816;2024-01-07T14:33:07;1.70;99.90
48686;DHT22;34485;51.536;3.816;2024-01-07T14:35:33;1.80;99.90
48686;DHT22;34485;51.536;3.816;2024-01-07T14:37:59;1.80;99.90
48686;DHT22;34485;51.536;3.816;2024-01-07T14:40:26;1.80;99.90
48686;DHT22;34485;51.536;3.816;2024-01-07T14:42:51;1.90;99.90
48686;DHT22;34485;51.536;3.816;2024-01-07T14:45:20;1.90;99.90
48686;DHT22;34485;51.536;3.816;2024-01-07T14:47:46;1.90;99.90
48686;DHT22;34485;51.536;3.816;2024-01-07T14:50:12;1.90;99.90
48686;DHT22;34485;51.536;3.816;2024-01-07T14:52:38;1.80;99.90
48686;DHT22;34485;51.536;3.816;2024-01-07T14:55:04;1.70;99.90
48686;DHT22;34485;51.536;3.816;2024-01-07T14:57:30;1.70;99.90
48686;DHT22;34485;51.536;3.816;2024-01-07T14:59:55;1.80;99.90
48686;DHT22;34485;51.536;3.816;2024-01-07T15:02:21;1.70;99.90
48686;DHT22;34485;51.536;3.816;2024-01-07T15:04:47;1.70;99.90
48686;DHT22;34485;51.536;3.816;2024-01-07T15:07:13;1.60;99.90
48686;DHT22;34485;51.536;3.816;2024-01-07T15:09:39;1.60;99.90
48686;DHT22;34485;51.536;3.816;2024-01-07T15:12:07;1.50;99.90
48686;DHT22;34485;51.536;3.816;2024-01-07T15:14:32;1.40;99.90
48686;DHT22;34485;51.536;3.816;2024-01-07T15:16:58;1.40;99.90
48686;DHT22;34485;51.536;3.816;2024-01-07T15:19:24;1.30;99.90
48686;DHT22;34485;51.536;3.816;2024-01-07T15:21:50;1.30;99.90
48686;DHT22;34485;51.536;3.816;2024-01-07T15:24:16;1.20;99.90
48686;DHT22;34485;51.536;3.816;2024-01-07T15:26:41;1.20;99.90
48686;DHT22;34485;51.536;3.816;2024-01-07T15:29:07;1.10;99.90
48686;DHT22;34485;51.536;3.816;2024-01-07T15:31:33;1.20;99.90
48686;DHT22;34485;51.536;3.816;2024-01-07T15:33:59;1.10;99.90
48686;DHT22;34485;51.536;3.816;2024-01-07T15:36:25;1.10;99.90
48686;DHT22;34485;51.536;3.816;2024-01-07T15:38:50;1.10;99.90
48686;DHT22;34485;51.536;3.816;2024-01-07T15:41:16;1.10;99.90
48686;DHT22;34485;51.536;3.816;2024-01-07T15:43:42;1.10;99.90
48686;DHT22;34485;51.536;3.816;2024-01-07T15:46:07;1.10;99.90
48686;DHT22;34485;51.536;3.816;2024-01-07T15:48:33;1.10;99.90
48686;DHT22;34485;51.536;3.816;2024-01-07T15:50:59;1.10;99.90
48686;DHT22;34485;51.536;3.816;2024-01-07T15:53:25;1.10;99.90
48686;DHT22;34485;51.536;3.816;2024-01-07T15:56:00;1.10;99.90
48686;DHT22;34485;51.536;3.816;2024-01-07T15:58:26;1.10;99.90
48686;DHT22;34485;51.536;3.816;2024-01-07T16:00:57;1.10;99.90
48686;DHT22;34485;51.536;3.816;2024-01-07T16:03:23;1.10;99.90
48686;DHT22;34485;51.536;3.816;2024-01-07T16:05:48;1.00;99.90
48686;DHT22;34485;51.536;3.816;2024-01-07T16:08:14;1.00;99.90
48686;DHT22;34485;51.536;3.816;2024-01-07T16:10:40;1.00;99.90
48686;DHT22;34485;51.536;3.816;2024-01-07T16:13:06;1.10;99.90
48686;DHT22;34485;51.536;3.816;2024-01-07T16:15:32;1.00;99.90
48686;DHT22;34485;51.536;3.816;2024-01-07T16:17:58;1.00;99.90
48686;DHT22;34485;51.536;3.816;2024-01-07T16:20:23;1.00;99.90
48686;DHT22;34485;51.536;3.816;2024-01-07T16:22:49;0.90;99.90
48686;DHT22;34485;51.536;3.816;2024-01-07T16:25:15;0.90;99.90
48686;DHT22;34485;51.536;3.816;2024-01-07T16:27:40;0.90;99.90
48686;DHT22;34485;51.536;3.816;2024-01-07T16:30:06;0.90;99.90
48686;DHT22;34485;51.536;3.816;2024-01-07T16:32:32;0.90;99.90
48686;DHT22;34485;51.536;3.816;2024-01-07T16:34:58;0.90;99.90
48686;DHT22;34485;51.536;3.816;2024-01-07T16:37:24;0.80;99.90
48686;DHT22;34485;51.536;3.816;2024-01-07T16:39:49;0.80;99.90
48686;DHT22;34485;51.536;3.816;2024-01-07T16:42:15;0.90;99.90
48686;DHT22;34485;51.536;3.816;2024-01-07T16:44:41;0.90;99.90
48686;DHT22;34485;51.536;3.816;2024-01-07T16:47:07;0.90;99.90
48686;DHT22;34485;51.536;3.816;2024-01-07T16:49:35;0.90;99.90
48686;DHT22;34485;51.536;3.816;2024-01-07T16:52:00;1.00;99.90
48686;DHT22;34485;51.536;3.816;2024-01-07T16:54:26;0.90;99.90
48686;DHT22;34485;51.536;3.816;2024-01-07T16:56:52;0.90;99.90
48686;DHT22;34485;51.536;3.816;2024-01-07T16:59:18;0.90;99.90
48686;DHT22;34485;51.536;3.816;2024-01-07T17:01:46;0.90;99.90
48686;DHT22;34485;51.536;3.816;2024-01-07T17:04:12;0.90;99.90
48686;DHT22;34485;51.536;3.816;2024-01-07T17:06:37;0.90;99.90
48686;DHT22;34485;51.536;3.816;2024-01-07T17:09:03;0.80;99.90
48686;DHT22;34485;51.536;3.816;2024-01-07T17:11:29;0.80;99.90
48686;DHT22;34485;51.536;3.816;2024-01-07T17:18:51;0.80;99.90
